Sylvania, OH (43560)

1:24 AM EST on February 08, 2016 (GMT -0500)
APRSWXNET | | Change Station
CLOSE
Current Station
Personal Weather Station
Location: Sylvania, OH
Elevation: 669 ft
Nearby Weather Stations

Elev 669 ft 41.72 °N, 83.73 °W | Updated 33 minutes ago

Mostly Cloudy
Mostly Cloudy
40 °F
Feels Like 40 °F
N
2
Wind Variable Wind from SW
Gusts 6.0 mph

Today
High -- | Low -- °F
--% Chance of Precip.
Yesterday
High -- | Low -- °F
Precip. -- in
Pressure 29.69 in
Visibility 10.0 miles
Clouds Mostly Cloudy 12000 ft
Windchill 40 °F
Dew Point 33 °F
Humidity 76%
Rainfall in
Snow Depth Not available.
7:39 AM 5:58 PM
Waning Crescent, 0% visible
METAR KDUH 080614Z AUTO 26006KT 10SM BKN120 05/00 A2969 RMK AO2 T00450002
Pressure 29.69 in
Visibility 10.0 miles
Clouds Mostly Cloudy 12000 ft
Windchill 40 °F
Dew Point 33 °F
Humidity 76%
Rainfall in
Snow Depth Not available.
7:39 AM 5:58 PM
Waning Crescent, 0% visible
METAR KDUH 080614Z AUTO 26006KT 10SM BKN120 05/00 A2969 RMK AO2 T00450002

10-Day Weather Forecast

Almanac

Astronomy

Feb. 08, 2016 Rise Set
Actual Time
Civil Twilight
Nautical Twilight
Astronomical Twilight
Moon
Length of Visible Light
Length of Day
Tomorrow will be .
, % of the Moon is Illuminated

Today's Extremes

State Highs State Lows

Community

WunderPhotos

Upload Photos

1,891,393 photos uploaded!

WunderBlog® & News

Nearby

Air Quality

  Air Quality AQ Index Pollutant
Not available.

Snow Depth

Station Depth Elevation

Earthquake Activity

City Distance Mag. Time & Date
Minimum magnitude displayed is 2.5.

Coastal Water Temperatures

Place Temperature

Stations

Nearby Weather Stations

Station Location Temp. Windchill Dew Point Humidity Wind Precip. Elev Updated Type
                   

Watches & Warnings

There are currently no watches in effect.